createdAt,value
2023-04-10T00:00:46.202Z,13.00
2023-04-10T00:03:17.851Z,15.35
2023-04-10T00:05:46.694Z,14.77
2023-04-10T00:08:17.979Z,11.85
2023-04-10T00:10:49.146Z,13.88
2023-04-10T00:13:20.015Z,14.43
2023-04-10T00:15:51.646Z,13.32
2023-04-10T00:18:23.540Z,15.45
2023-04-10T00:20:52.348Z,14.50
2023-04-10T00:23:24.810Z,15.63
2023-04-10T00:25:54.640Z,14.95
2023-04-10T00:28:33.787Z,12.00
2023-04-10T00:31:05.859Z,14.82
2023-04-10T00:33:35.406Z,16.02
2023-04-10T00:36:05.389Z,13.10
2023-04-10T00:38:34.332Z,13.88
2023-04-10T00:41:08.293Z,13.40
2023-04-10T00:43:40.281Z,14.13
2023-04-10T00:46:11.743Z,14.75
2023-04-10T00:48:41.846Z,11.35
2023-04-10T00:51:13.640Z,11.75
2023-04-10T00:53:46.057Z,11.70
2023-04-10T00:56:19.024Z,13.80
2023-04-10T00:58:54.949Z,12.55
2023-04-10T01:01:28.396Z,12.10
2023-04-10T01:04:03.535Z,14.52
2023-04-10T01:06:59.047Z,11.38
2023-04-10T01:09:49.502Z,11.80
2023-04-10T01:12:29.616Z,9.95
2023-04-10T01:15:12.444Z,12.70
2023-04-10T01:17:53.077Z,9.70
2023-04-10T01:20:30.749Z,10.52
2023-04-10T01:23:25.369Z,9.80
2023-04-10T01:26:03.741Z,12.18
2023-04-10T01:29:02.342Z,11.38
2023-04-10T01:31:50.932Z,8.98
2023-04-10T01:34:27.212Z,8.90
2023-04-10T01:37:04.498Z,9.27
2023-04-10T01:39:38.587Z,9.95
2023-04-10T01:42:09.781Z,9.95
2023-04-10T01:44:46.477Z,11.00
2023-04-10T01:47:18.709Z,9.45
2023-04-10T01:49:49.803Z,11.35
2023-04-10T01:52:19.799Z,10.82
2023-04-10T01:54:59.106Z,13.90
2023-04-10T01:57:49.994Z,9.82
2023-04-10T02:00:24.542Z,10.57
2023-04-10T02:02:54.006Z,9.05
2023-04-10T02:05:25.210Z,10.82
2023-04-10T02:08:06.498Z,11.07
2023-04-10T02:11:18.426Z,10.48
2023-04-10T02:13:54.054Z,11.65
2023-04-10T02:16:24.359Z,10.75
2023-04-10T02:18:57.144Z,10.65
2023-04-10T02:21:29.456Z,11.80
2023-04-10T02:23:59.638Z,11.85
2023-04-10T02:26:48.977Z,11.05
2023-04-10T02:29:19.353Z,10.45
2023-04-10T02:31:56.934Z,11.05
2023-04-10T02:34:27.765Z,12.25
2023-04-10T02:37:01.881Z,13.77
2023-04-10T02:39:31.494Z,11.75
2023-04-10T02:42:01.641Z,12.15
2023-04-10T02:44:35.282Z,12.32
2023-04-10T02:47:04.721Z,9.98
2023-04-10T02:49:35.861Z,13.70
2023-04-10T02:52:15.250Z,11.55
2023-04-10T02:54:47.997Z,12.68
2023-04-10T02:57:25.963Z,14.32
2023-04-10T02:59:55.368Z,12.65
2023-04-10T03:02:28.689Z,11.00
2023-04-10T03:05:03.079Z,11.90
2023-04-10T03:07:34.668Z,17.83
2023-04-10T03:10:03.699Z,13.10
2023-04-10T03:12:32.759Z,17.00
2023-04-10T03:15:08.222Z,13.05
2023-04-10T03:17:44.714Z,13.50
2023-04-10T03:20:24.254Z,12.13
2023-04-10T03:22:56.642Z,13.57
2023-04-10T03:25:32.198Z,12.60
2023-04-10T03:28:08.890Z,11.93
2023-04-10T03:30:40.368Z,11.65
2023-04-10T03:33:12.740Z,12.35
2023-04-10T03:35:48.103Z,11.98
2023-04-10T03:38:17.162Z,14.52
2023-04-10T03:40:48.710Z,11.98
2023-04-10T03:43:29.444Z,13.75
2023-04-10T03:46:00.339Z,12.13
2023-04-10T03:48:32.843Z,11.82
2023-04-10T03:51:03.961Z,12.20
2023-04-10T03:53:36.421Z,13.18
2023-04-10T03:56:09.852Z,14.85
2023-04-10T03:58:45.825Z,11.02
2023-04-10T04:01:18.892Z,11.98
2023-04-10T04:04:01.705Z,13.35
2023-04-10T04:07:13.138Z,13.10
2023-04-10T04:10:02.762Z,13.15
2023-04-10T04:12:50.623Z,14.23
2023-04-10T04:15:40.390Z,13.70
2023-04-10T04:18:38.400Z,13.88
2023-04-10T04:21:34.275Z,13.77
2023-04-10T04:24:22.668Z,16.42
2023-04-10T04:27:06.620Z,13.05
2023-04-10T04:29:54.478Z,15.35
2023-04-10T04:32:35.143Z,14.98
2023-04-10T04:35:04.719Z,12.25
2023-04-10T04:37:52.706Z,12.00
2023-04-10T04:40:45.422Z,11.77
2023-04-10T04:43:23.937Z,11.13
2023-04-10T04:46:14.380Z,10.75
2023-04-10T04:49:01.741Z,12.05
2023-04-10T04:51:49.857Z,13.30
2023-04-10T04:54:41.390Z,15.13
2023-04-10T04:57:36.419Z,11.77
2023-04-10T05:00:24.256Z,11.85
2023-04-10T05:03:25.734Z,13.05
2023-04-10T05:06:19.327Z,11.45
2023-04-10T05:09:13.603Z,13.75
2023-04-10T05:12:09.656Z,12.18
2023-04-10T05:14:55.523Z,11.40
2023-04-10T05:18:05.784Z,10.65
2023-04-10T05:21:10.320Z,13.75
2023-04-10T05:24:04.827Z,10.88
2023-04-10T05:26:43.078Z,11.27
2023-04-10T05:29:36.015Z,12.38
2023-04-10T05:32:21.256Z,12.55
2023-04-10T05:35:03.836Z,12.25
2023-04-10T05:38:01.322Z,11.73
2023-04-10T05:40:46.384Z,12.00
2023-04-10T05:43:34.023Z,12.50
2023-04-10T05:46:24.159Z,10.65
2023-04-10T05:48:54.000Z,11.77
2023-04-10T05:51:50.663Z,10.35
2023-04-10T05:54:40.800Z,13.10
2023-04-10T05:57:33.332Z,11.82
2023-04-10T06:00:22.459Z,12.05
2023-04-10T06:03:31.255Z,11.43
2023-04-10T06:06:05.260Z,11.13
2023-04-10T06:08:35.243Z,11.18
2023-04-10T06:11:05.193Z,11.23
2023-04-10T06:13:34.564Z,12.20
2023-04-10T06:16:09.078Z,12.27
2023-04-10T06:18:39.406Z,12.40
2023-04-10T06:21:09.139Z,14.45
2023-04-10T06:23:41.380Z,13.38
2023-04-10T06:26:14.008Z,14.65
2023-04-10T06:28:46.262Z,11.82
2023-04-10T06:31:23.467Z,12.40
2023-04-10T06:33:52.509Z,13.70
2023-04-10T06:36:22.232Z,14.27
2023-04-10T06:39:07.537Z,13.60
2023-04-10T06:41:38.632Z,12.18
2023-04-10T06:44:25.674Z,12.30
2023-04-10T06:46:56.754Z,11.02
2023-04-10T06:49:31.112Z,9.57
2023-04-10T06:52:00.823Z,10.05
2023-04-10T06:54:31.884Z,12.40
2023-04-10T06:57:11.987Z,10.60
2023-04-10T06:59:41.120Z,14.35
2023-04-10T07:02:10.397Z,12.10
2023-04-10T07:04:39.821Z,11.90
2023-04-10T07:07:14.046Z,11.60
2023-04-10T07:09:45.528Z,11.80
2023-04-10T07:12:14.827Z,11.57
2023-04-10T07:14:44.023Z,12.02
2023-04-10T07:17:13.023Z,12.15
2023-04-10T07:19:41.975Z,13.55
2023-04-10T07:22:16.152Z,11.00
2023-04-10T07:24:50.334Z,10.82
2023-04-10T07:27:21.882Z,14.25
2023-04-10T07:29:50.938Z,11.30
2023-04-10T07:32:19.977Z,8.93
2023-04-10T07:34:53.354Z,9.95
2023-04-10T07:37:24.533Z,9.68
2023-04-10T07:39:56.056Z,10.60
2023-04-10T07:42:26.355Z,9.57
2023-04-10T07:44:57.827Z,9.60
2023-04-10T07:47:27.781Z,9.52
2023-04-10T07:49:59.195Z,8.52
2023-04-10T07:52:28.763Z,8.45
2023-04-10T07:54:57.908Z,7.53
2023-04-10T07:57:32.710Z,10.55
2023-04-10T08:00:07.832Z,9.63
2023-04-10T08:02:46.299Z,9.55
2023-04-10T08:05:16.186Z,10.30
2023-04-10T08:07:48.352Z,10.70
2023-04-10T08:10:20.719Z,9.05
2023-04-10T08:12:49.979Z,8.57
2023-04-10T08:15:19.840Z,9.63
2023-04-10T08:17:55.416Z,9.75
2023-04-10T08:20:26.821Z,10.70
2023-04-10T08:23:12.922Z,10.02
2023-04-10T08:25:49.071Z,10.57
2023-04-10T08:28:19.913Z,10.23
2023-04-10T08:30:49.645Z,10.70
2023-04-10T08:33:21.189Z,10.25
2023-04-10T08:35:55.796Z,9.55
2023-04-10T08:38:28.391Z,10.15
2023-04-10T08:40:57.511Z,9.57
2023-04-10T08:43:28.462Z,9.35
2023-04-10T08:46:00.538Z,8.30
2023-04-10T08:48:42.648Z,11.43
2023-04-10T08:51:20.023Z,10.73
2023-04-10T08:53:52.700Z,7.18
2023-04-10T08:56:28.333Z,8.27
2023-04-10T08:59:11.751Z,7.43
2023-04-10T09:04:13.488Z,9.77
2023-04-10T09:07:01.674Z,7.53
2023-04-10T09:09:33.695Z,8.10
2023-04-10T09:12:04.785Z,8.02
2023-04-10T09:14:38.574Z,8.30
2023-04-10T09:17:14.984Z,10.68
2023-04-10T09:19:46.169Z,11.43
2023-04-10T09:22:18.253Z,12.57
2023-04-10T09:24:48.758Z,8.93
2023-04-10T09:27:37.671Z,8.13
2023-04-10T09:30:09.774Z,8.45
2023-04-10T09:32:47.063Z,9.30
2023-04-10T09:35:22.941Z,9.70
2023-04-10T09:37:54.276Z,7.82
2023-04-10T09:40:25.863Z,9.27
2023-04-10T09:42:57.804Z,8.50
2023-04-10T09:45:50.283Z,9.48
2023-04-10T09:48:24.926Z,8.57
2023-04-10T09:50:58.655Z,8.25
2023-04-10T09:53:28.743Z,7.90
2023-04-10T09:56:05.769Z,10.13
2023-04-10T09:58:45.956Z,8.98
2023-04-10T10:01:15.226Z,11.70
2023-04-10T10:03:50.430Z,11.93
2023-04-10T10:06:22.723Z,6.80
2023-04-10T10:08:56.635Z,9.02
2023-04-10T10:11:35.587Z,7.18
2023-04-10T10:14:14.253Z,10.32
2023-04-10T10:16:55.725Z,7.82
2023-04-10T10:19:40.114Z,8.48
2023-04-10T10:22:13.488Z,8.80
2023-04-10T10:24:48.259Z,9.82
2023-04-10T10:27:18.826Z,12.60
2023-04-10T10:29:53.862Z,11.35
2023-04-10T10:32:27.074Z,9.55
2023-04-10T10:34:59.719Z,8.48
2023-04-10T10:37:31.175Z,9.30
2023-04-10T10:40:23.380Z,8.02
2023-04-10T10:43:02.411Z,9.65
2023-04-10T10:45:42.806Z,8.57
2023-04-10T10:48:14.979Z,7.60
2023-04-10T10:51:04.019Z,8.65
2023-04-10T10:53:39.367Z,8.80
2023-04-10T10:56:28.989Z,10.18
2023-04-10T10:59:08.402Z,8.35
2023-04-10T11:02:03.428Z,10.20
2023-04-10T11:04:51.072Z,11.68
2023-04-10T11:07:42.234Z,9.20
2023-04-10T11:10:12.765Z,12.00
2023-04-10T11:13:18.193Z,10.77
2023-04-10T11:15:54.564Z,12.85
2023-04-10T11:18:45.807Z,8.57
2023-04-10T11:23:58.946Z,10.80
2023-04-10T11:26:47.444Z,8.10
2023-04-10T11:29:19.326Z,10.23
2023-04-10T11:34:31.616Z,10.82
2023-04-10T11:37:03.830Z,7.05
2023-04-10T11:39:36.398Z,6.50
2023-04-10T11:42:12.167Z,7.85
2023-04-10T11:44:43.860Z,11.70
2023-04-10T11:47:14.063Z,10.07
2023-04-10T11:49:43.119Z,8.93
2023-04-10T11:52:13.299Z,8.88
2023-04-10T11:57:25.315Z,8.60
2023-04-10T11:59:59.985Z,6.95
2023-04-10T12:02:29.354Z,9.25
2023-04-10T12:04:59.920Z,6.47
2023-04-10T12:07:33.282Z,10.15
2023-04-10T12:10:06.726Z,10.70
2023-04-10T12:12:39.399Z,9.15
2023-04-10T12:15:29.182Z,7.30
2023-04-10T12:17:58.353Z,8.55
2023-04-10T12:20:31.371Z,8.20
2023-04-10T12:23:03.541Z,9.48
2023-04-10T12:25:32.732Z,6.10
2023-04-10T12:28:03.968Z,6.53
2023-04-10T12:30:36.071Z,8.65
2023-04-10T12:33:07.977Z,11.10
2023-04-10T12:35:45.407Z,9.27
2023-04-10T12:38:39.513Z,9.85
2023-04-10T12:41:10.662Z,10.43
2023-04-10T12:43:45.327Z,7.85
2023-04-10T12:46:25.179Z,9.82
2023-04-10T12:48:55.087Z,8.25
2023-04-10T12:51:45.383Z,6.38
2023-04-10T12:54:35.940Z,8.45
2023-04-10T12:57:30.480Z,8.07
2023-04-10T13:00:01.061Z,6.75
2023-04-10T13:02:33.502Z,9.38
2023-04-10T13:05:02.736Z,7.53
2023-04-10T13:07:35.011Z,7.63
2023-04-10T13:10:05.582Z,10.70
2023-04-10T13:12:36.681Z,10.30
2023-04-10T13:15:09.723Z,6.95
2023-04-10T13:17:41.989Z,7.93
2023-04-10T13:20:16.267Z,8.80
2023-04-10T13:22:48.417Z,11.73
2023-04-10T13:25:25.788Z,8.52
2023-04-10T13:27:55.698Z,10.75
2023-04-10T13:30:28.002Z,11.77
2023-04-10T13:33:00.207Z,7.63
2023-04-10T13:35:29.510Z,9.98
2023-04-10T13:37:59.373Z,11.43
2023-04-10T13:40:28.702Z,9.65
2023-04-10T13:43:00.761Z,7.10
2023-04-10T13:45:34.344Z,9.30
2023-04-10T13:48:08.097Z,7.40
2023-04-10T13:50:39.733Z,6.50
2023-04-10T13:53:11.379Z,15.70
2023-04-10T13:55:44.270Z,7.47
2023-04-10T13:58:22.435Z,8.20
2023-04-10T14:00:56.507Z,9.27
2023-04-10T14:03:27.834Z,8.60
2023-04-10T14:05:59.314Z,7.82
2023-04-10T14:08:30.611Z,7.43
2023-04-10T14:10:59.616Z,6.78
2023-04-10T14:13:31.753Z,7.15
2023-04-10T14:16:04.765Z,8.30
2023-04-10T14:18:39.651Z,7.25
2023-04-10T14:21:11.355Z,8.15
2023-04-10T14:23:46.640Z,7.38
2023-04-10T14:26:18.764Z,7.43
2023-04-10T14:28:50.358Z,7.45
2023-04-10T14:31:20.502Z,7.32
2023-04-10T14:33:53.174Z,8.57
2023-04-10T14:36:22.228Z,8.63
2023-04-10T14:38:56.422Z,7.10
2023-04-10T14:41:29.360Z,6.95
2023-04-10T14:44:00.427Z,7.25
2023-04-10T14:46:32.561Z,7.95
2023-04-10T14:49:04.748Z,8.10
2023-04-10T14:51:36.716Z,8.48
2023-04-10T14:54:06.061Z,8.70
2023-04-10T14:56:36.251Z,8.43
2023-04-10T14:59:15.766Z,9.10
2023-04-10T15:01:49.755Z,9.25
2023-04-10T15:04:23.815Z,8.15
2023-04-10T15:06:57.864Z,10.65
2023-04-10T15:09:32.876Z,8.73
2023-04-10T15:12:04.965Z,10.27
2023-04-10T15:14:33.990Z,10.13
2023-04-10T15:17:03.119Z,9.73
2023-04-10T15:19:32.327Z,8.80
2023-04-10T15:22:03.742Z,8.00
2023-04-10T15:24:46.963Z,9.60
2023-04-10T15:27:26.996Z,9.27
2023-04-10T15:29:55.949Z,8.38
2023-04-10T15:32:35.837Z,10.40
2023-04-10T15:35:15.488Z,8.30
2023-04-10T15:37:48.048Z,13.60
2023-04-10T15:43:00.542Z,10.27
2023-04-10T15:45:29.630Z,9.80
2023-04-10T15:48:01.833Z,11.05
2023-04-10T15:50:46.203Z,10.60
2023-04-10T15:53:15.438Z,12.57
2023-04-10T15:55:53.736Z,13.98
2023-04-10T15:58:40.351Z,10.75
2023-04-10T16:01:12.383Z,13.18
2023-04-10T16:03:54.726Z,13.77
2023-04-10T16:06:30.356Z,12.10
2023-04-10T16:09:15.292Z,11.23
2023-04-10T16:12:16.458Z,10.85
2023-04-10T16:17:47.612Z,11.32
2023-04-10T16:20:17.227Z,14.30
2023-04-10T16:22:46.706Z,12.40
2023-04-10T16:25:18.877Z,12.35
2023-04-10T16:27:54.392Z,15.00
2023-04-10T16:30:24.164Z,14.73
2023-04-10T16:32:53.614Z,11.32
2023-04-10T16:35:28.399Z,12.77
2023-04-10T16:37:57.602Z,11.38
2023-04-10T16:40:33.257Z,10.45
2023-04-10T16:43:05.634Z,12.80
2023-04-10T16:45:37.791Z,11.02
2023-04-10T16:48:12.143Z,11.85
2023-04-10T16:50:41.716Z,11.65
2023-04-10T16:53:12.501Z,9.98
2023-04-10T16:55:45.556Z,12.88
2023-04-10T17:00:52.841Z,9.02
2023-04-10T17:03:22.135Z,10.98
2023-04-10T17:05:54.495Z,9.63
2023-04-10T17:08:29.788Z,10.15
2023-04-10T17:10:59.392Z,10.30
2023-04-10T17:13:28.809Z,9.40
2023-04-10T17:16:00.718Z,13.60
2023-04-10T17:18:38.357Z,9.50
2023-04-10T17:21:15.054Z,9.88
2023-04-10T17:23:49.706Z,9.07
2023-04-10T17:26:21.632Z,10.00
2023-04-10T17:28:53.687Z,9.88
2023-04-10T17:31:23.843Z,11.82
2023-04-10T17:33:54.352Z,8.18
2023-04-10T17:36:27.475Z,8.23
2023-04-10T17:39:01.094Z,10.13
2023-04-10T17:41:32.224Z,9.27
2023-04-10T17:44:09.645Z,7.82
2023-04-10T17:46:41.175Z,8.32
2023-04-10T17:49:18.129Z,10.27
2023-04-10T17:51:50.745Z,10.23
2023-04-10T17:56:53.626Z,10.73
2023-04-10T17:59:32.510Z,10.52
2023-04-10T18:02:04.805Z,10.23
2023-04-10T18:04:40.101Z,10.75
2023-04-10T18:07:09.760Z,11.43
2023-04-10T18:09:46.130Z,10.25
2023-04-10T18:12:20.097Z,11.13
2023-04-10T18:14:51.522Z,10.73
2023-04-10T18:17:21.576Z,11.07
2023-04-10T18:19:55.750Z,30.23
2023-04-10T18:22:24.905Z,11.48
2023-04-10T18:24:56.215Z,15.70
2023-04-10T18:27:25.201Z,12.05
2023-04-10T18:29:54.575Z,12.82
2023-04-10T18:32:26.860Z,12.30
2023-04-10T18:34:56.213Z,12.60
2023-04-10T18:37:27.453Z,12.95
2023-04-10T18:39:58.745Z,11.52
2023-04-10T18:42:32.852Z,14.38
2023-04-10T18:45:05.468Z,13.02
2023-04-10T18:47:35.331Z,14.40
2023-04-10T18:50:04.600Z,12.25
2023-04-10T18:52:36.507Z,13.55
2023-04-10T18:55:05.784Z,13.15
2023-04-10T18:57:40.794Z,14.25
2023-04-10T19:00:14.453Z,13.38
2023-04-10T19:02:47.836Z,12.73
2023-04-10T19:05:17.720Z,14.02
2023-04-10T19:08:00.682Z,14.25
2023-04-10T19:10:37.996Z,12.38
2023-04-10T19:13:12.426Z,12.95
2023-04-10T19:15:47.077Z,11.50
2023-04-10T19:18:16.749Z,11.88
2023-04-10T19:20:50.893Z,12.45
2023-04-10T19:23:24.485Z,11.05
2023-04-10T19:26:00.742Z,12.73
2023-04-10T19:28:35.199Z,10.15
2023-04-10T19:31:04.412Z,11.65
2023-04-10T19:33:33.529Z,12.23
2023-04-10T19:36:02.709Z,11.00
2023-04-10T19:38:34.332Z,13.23
2023-04-10T19:41:17.448Z,13.18
2023-04-10T19:43:46.484Z,13.25
2023-04-10T19:46:23.762Z,13.10
2023-04-10T19:48:55.030Z,15.13
2023-04-10T19:51:28.733Z,14.73
2023-04-10T19:54:00.340Z,13.98
2023-04-10T19:56:32.406Z,12.23
2023-04-10T19:59:07.328Z,15.25
2023-04-10T20:01:36.710Z,16.40
2023-04-10T20:04:12.468Z,15.25
2023-04-10T20:06:44.550Z,14.30
2023-04-10T20:09:13.983Z,14.13
2023-04-10T20:11:49.093Z,16.38
2023-04-10T20:14:18.337Z,14.05
2023-04-10T20:16:50.294Z,14.90
2023-04-10T20:19:19.470Z,13.70
2023-04-10T20:21:57.182Z,17.38
2023-04-10T20:24:29.330Z,16.55
2023-04-10T20:26:59.118Z,18.38
2023-04-10T20:29:28.750Z,18.63
2023-04-10T20:31:58.810Z,16.67
2023-04-10T20:34:35.263Z,20.63
2023-04-10T20:37:05.162Z,19.80
2023-04-10T20:39:38.207Z,16.70
2023-04-10T20:42:07.339Z,16.38
2023-04-10T20:44:42.653Z,19.25
2023-04-10T20:47:11.703Z,18.13
2023-04-10T20:49:48.028Z,17.92
2023-04-10T20:52:19.254Z,17.70
2023-04-10T20:54:48.508Z,15.88
2023-04-10T20:57:18.742Z,14.98
2023-04-10T20:59:50.576Z,16.42
2023-04-10T21:02:22.977Z,17.13
2023-04-10T21:04:57.558Z,15.85
2023-04-10T21:07:30.748Z,17.17
2023-04-10T21:10:00.062Z,16.20
2023-04-10T21:12:31.776Z,15.88
2023-04-10T21:15:00.816Z,18.20
2023-04-10T21:17:34.657Z,15.30
2023-04-10T21:20:03.906Z,17.63
2023-04-10T21:22:34.124Z,18.90
2023-04-10T21:25:03.704Z,17.52
2023-04-10T21:27:32.630Z,16.17
2023-04-10T21:30:01.892Z,16.60
2023-04-10T21:32:34.492Z,14.80
2023-04-10T21:35:08.879Z,14.93
2023-04-10T21:37:40.040Z,14.55
2023-04-10T21:40:11.463Z,20.10
2023-04-10T21:42:44.851Z,16.73
2023-04-10T21:45:19.315Z,15.80
2023-04-10T21:47:51.266Z,15.43
2023-04-10T21:50:25.128Z,14.75
2023-04-10T21:53:01.306Z,13.27
2023-04-10T21:55:35.025Z,13.43
2023-04-10T21:58:10.262Z,14.82
2023-04-10T22:00:40.373Z,14.55
2023-04-10T22:03:12.096Z,11.98
2023-04-10T22:05:41.218Z,13.10
2023-04-10T22:08:10.536Z,12.15
2023-04-10T22:10:45.481Z,13.68
2023-04-10T22:13:29.570Z,18.27
2023-04-10T22:16:03.699Z,11.95
2023-04-10T22:18:32.839Z,12.75
2023-04-10T22:21:04.144Z,13.73
2023-04-10T22:23:33.114Z,13.82
2023-04-10T22:26:06.260Z,12.27
2023-04-10T22:28:36.072Z,14.75
2023-04-10T22:31:05.481Z,13.82
2023-04-10T22:33:34.516Z,11.27
2023-04-10T22:36:03.418Z,11.38
2023-04-10T22:38:37.836Z,11.77
2023-04-10T22:41:11.253Z,9.15
2023-04-10T22:43:40.047Z,12.07
2023-04-10T22:46:11.676Z,12.82
2023-04-10T22:48:41.213Z,11.32
2023-04-10T22:51:16.180Z,10.75
2023-04-10T22:53:47.578Z,13.15
2023-04-10T22:56:19.802Z,12.18
2023-04-10T22:58:49.842Z,10.95
2023-04-10T23:01:21.997Z,10.80
2023-04-10T23:03:54.337Z,11.98
2023-04-10T23:06:24.517Z,12.60
2023-04-10T23:08:56.536Z,10.65
2023-04-10T23:11:26.370Z,10.23
2023-04-10T23:14:00.036Z,10.88
2023-04-10T23:16:32.202Z,9.73
2023-04-10T23:19:14.068Z,10.10
2023-04-10T23:21:42.844Z,9.93
2023-04-10T23:24:15.174Z,9.90
2023-04-10T23:26:47.317Z,9.65
2023-04-10T23:29:18.536Z,10.52
2023-04-10T23:31:49.658Z,12.05
2023-04-10T23:34:27.085Z,9.20
2023-04-10T23:37:07.962Z,11.75
2023-04-10T23:39:36.712Z,14.50
2023-04-10T23:42:08.583Z,9.57
2023-04-10T23:44:40.578Z,10.10
2023-04-10T23:47:09.723Z,9.55
2023-04-10T23:49:38.735Z,10.45
2023-04-10T23:52:11.114Z,12.75
2023-04-10T23:54:40.991Z,12.57
2023-04-10T23:57:10.579Z,14.23
2023-04-10T23:59:42.517Z,10.70
